createdAt,value
2019-06-08T00:00:39.364Z,98744.00
2019-06-08T00:03:08.554Z,98737.00
2019-06-08T00:05:37.768Z,98732.00
2019-06-08T00:08:19.304Z,98726.00
2019-06-08T00:10:48.459Z,98732.00
2019-06-08T00:13:27.529Z,98731.00
2019-06-08T00:15:56.989Z,98737.00
2019-06-08T00:18:37.168Z,98746.00
2019-06-08T00:21:13.493Z,98750.00
2019-06-08T00:23:52.494Z,98750.00
2019-06-08T00:26:34.705Z,98752.00
2019-06-08T00:29:09.446Z,98763.00
2019-06-08T00:31:55.386Z,98765.00
2019-06-08T00:34:35.170Z,98749.00
2019-06-08T00:37:20.731Z,98755.00
2019-06-08T00:39:58.791Z,98753.00
2019-06-08T00:42:37.265Z,98760.00
2019-06-08T00:45:07.000Z,98742.00
2019-06-08T00:47:47.456Z,98741.00
2019-06-08T00:50:07.728Z,98740.00
2019-06-08T00:52:36.811Z,98733.00
2019-06-08T00:55:17.377Z,98739.00
2019-06-08T00:57:49.672Z,98718.00
2019-06-08T01:00:30.730Z,98741.00
2019-06-08T01:03:15.146Z,98747.00
2019-06-08T01:05:46.427Z,98735.00
2019-06-08T01:08:30.696Z,98735.00
2019-06-08T01:11:10.323Z,98732.00
2019-06-08T01:13:50.442Z,98732.00
2019-06-08T01:16:20.924Z,98715.00
2019-06-08T01:18:55.172Z,98711.00
2019-06-08T01:21:25.593Z,98734.00
2019-06-08T01:23:54.948Z,98738.00
2019-06-08T01:26:24.122Z,98738.00
2019-06-08T01:28:53.197Z,98749.00
2019-06-08T01:31:22.503Z,98741.00
2019-06-08T01:34:08.639Z,98733.00
2019-06-08T01:36:40.648Z,98739.00
2019-06-08T01:39:14.265Z,98733.00
2019-06-08T01:41:43.290Z,98729.00
2019-06-08T01:44:12.682Z,98745.00
2019-06-08T01:46:41.754Z,98761.00
2019-06-08T01:49:12.515Z,98754.00
2019-06-08T01:51:41.932Z,98771.00
2019-06-08T01:54:10.990Z,98779.00
2019-06-08T01:56:50.952Z,98773.00
2019-06-08T01:59:35.624Z,98780.00
2019-06-08T02:02:10.498Z,98798.00
2019-06-08T02:04:40.567Z,98800.00
2019-06-08T02:07:11.358Z,98786.00
2019-06-08T02:09:42.482Z,98791.00
2019-06-08T02:12:11.588Z,98791.00
2019-06-08T02:14:42.137Z,98775.00
2019-06-08T02:17:12.578Z,98777.00
2019-06-08T02:19:49.382Z,98778.00
2019-06-08T02:22:22.503Z,98781.00
2019-06-08T02:24:51.797Z,98798.00
2019-06-08T02:27:20.873Z,98793.00
2019-06-08T02:29:49.936Z,98796.00
2019-06-08T02:32:21.071Z,98798.00
2019-06-08T02:34:50.119Z,98794.00
2019-06-08T02:37:19.277Z,98811.00
2019-06-08T02:40:06.407Z,98812.00
2019-06-08T02:42:37.216Z,98815.00
2019-06-08T02:45:06.563Z,98815.00
2019-06-08T02:47:36.666Z,98825.00
2019-06-08T02:50:06.459Z,98806.00
2019-06-08T02:52:36.345Z,98808.00
2019-06-08T02:55:06.099Z,98817.00
2019-06-08T02:57:37.593Z,98819.00
2019-06-08T03:00:07.747Z,98828.00
2019-06-08T03:02:38.504Z,98831.00
2019-06-08T03:05:15.920Z,98829.00
2019-06-08T03:07:44.922Z,98835.00
2019-06-08T03:10:13.942Z,98845.00
2019-06-08T03:12:43.479Z,98857.00
2019-06-08T03:15:16.306Z,98851.00
2019-06-08T03:17:46.691Z,98837.00
2019-06-08T03:20:18.012Z,98830.00
2019-06-08T03:22:52.282Z,98835.00
2019-06-08T03:25:21.791Z,98841.00
2019-06-08T03:28:08.959Z,98838.00
2019-06-08T03:30:47.429Z,98863.00
2019-06-08T03:33:14.574Z,98851.00
2019-06-08T03:35:54.911Z,98855.00
2019-06-08T03:38:14.362Z,98852.00
2019-06-08T03:40:45.193Z,98860.00
2019-06-08T03:43:14.282Z,98864.00
2019-06-08T03:45:45.663Z,98852.00
2019-06-08T03:48:14.842Z,98866.00
2019-06-08T03:50:46.191Z,98874.00
2019-06-08T03:53:15.113Z,98867.00
2019-06-08T03:55:45.466Z,98857.00
2019-06-08T03:58:15.229Z,98859.00
2019-06-08T04:00:44.539Z,98872.00
2019-06-08T04:03:23.757Z,98883.00
2019-06-08T04:05:54.684Z,98896.00
2019-06-08T04:08:23.926Z,98902.00
2019-06-08T04:10:54.435Z,98915.00
2019-06-08T04:13:23.934Z,98925.00
2019-06-08T04:15:58.197Z,98935.00
2019-06-08T04:18:27.357Z,98945.00
2019-06-08T04:20:56.491Z,98917.00
2019-06-08T04:23:25.550Z,98909.00
2019-06-08T04:25:54.866Z,98908.00
2019-06-08T04:28:24.168Z,98911.00
2019-06-08T04:30:53.438Z,98895.00
2019-06-08T04:33:22.741Z,98893.00
2019-06-08T04:35:51.810Z,98898.00
2019-06-08T04:38:20.992Z,98911.00
2019-06-08T04:40:50.149Z,98917.00
2019-06-08T04:43:19.209Z,98926.00
2019-06-08T04:45:49.894Z,98955.00
2019-06-08T04:48:19.152Z,98972.00
2019-06-08T04:50:49.839Z,98969.00
2019-06-08T04:53:18.984Z,98978.00
2019-06-08T04:55:49.302Z,98991.00
2019-06-08T04:58:18.516Z,98995.00
2019-06-08T05:00:48.789Z,98991.00
2019-06-08T05:03:18.358Z,98986.00
2019-06-08T05:05:47.725Z,98991.00
2019-06-08T05:08:18.101Z,99001.00
2019-06-08T05:10:47.534Z,99015.00
2019-06-08T05:13:16.715Z,99012.00
2019-06-08T05:15:47.246Z,99003.00
2019-06-08T05:18:16.542Z,99015.00
2019-06-08T05:20:47.950Z,99017.00
2019-06-08T05:23:16.523Z,99006.00
2019-06-08T05:25:45.634Z,99012.00
2019-06-08T05:28:14.703Z,99025.00
2019-06-08T05:30:43.773Z,99023.00
2019-06-08T05:33:13.081Z,99026.00
2019-06-08T05:35:43.380Z,99027.00
2019-06-08T05:38:12.859Z,99015.00
2019-06-08T05:40:43.531Z,99019.00
2019-06-08T05:43:17.458Z,99023.00
2019-06-08T05:45:48.373Z,99030.00
2019-06-08T05:48:17.938Z,99031.00
2019-06-08T05:51:02.699Z,99039.00
2019-06-08T05:53:18.553Z,99040.00
2019-06-08T05:55:48.096Z,99055.00
2019-06-08T05:58:17.575Z,99037.00
2019-06-08T06:00:47.995Z,99048.00
2019-06-08T06:03:17.623Z,99050.00
2019-06-08T06:05:46.874Z,99036.00
2019-06-08T06:08:19.157Z,99043.00
2019-06-08T06:10:48.849Z,99061.00
2019-06-08T06:13:18.015Z,99072.00
2019-06-08T06:15:47.272Z,99083.00
2019-06-08T06:18:16.732Z,99084.00
2019-06-08T06:20:47.189Z,99091.00
2019-06-08T06:23:16.447Z,99085.00
2019-06-08T06:25:45.670Z,99084.00
2019-06-08T06:28:14.822Z,99092.00
2019-06-08T06:30:44.219Z,99095.00
2019-06-08T06:33:14.018Z,99098.00
2019-06-08T06:35:43.767Z,99101.00
2019-06-08T06:38:13.016Z,99097.00
2019-06-08T06:40:42.340Z,99092.00
2019-06-08T06:43:11.921Z,99097.00
2019-06-08T06:45:41.814Z,99101.00
2019-06-08T06:48:10.981Z,99118.00
2019-06-08T06:50:40.067Z,99117.00
2019-06-08T06:53:09.158Z,99111.00
2019-06-08T06:55:38.626Z,99121.00
2019-06-08T06:58:08.867Z,99105.00
2019-06-08T07:00:38.116Z,99117.00
2019-06-08T07:03:07.752Z,99118.00
2019-06-08T07:05:36.944Z,99116.00
2019-06-08T07:08:06.191Z,99112.00
2019-06-08T07:10:35.966Z,99118.00
2019-06-08T07:13:05.066Z,99120.00
2019-06-08T07:15:41.647Z,99113.00
2019-06-08T07:18:05.166Z,99115.00
2019-06-08T07:21:10.508Z,99120.00
2019-06-08T07:23:39.777Z,99128.00
2019-06-08T07:26:08.947Z,99130.00
2019-06-08T07:28:38.128Z,99138.00
2019-06-08T07:31:07.293Z,99129.00
2019-06-08T07:33:38.595Z,99125.00
2019-06-08T07:36:07.836Z,99130.00
2019-06-08T07:38:37.056Z,99125.00
2019-06-08T07:41:06.727Z,99127.00
2019-06-08T07:43:36.002Z,99126.00
2019-06-08T07:46:05.350Z,99130.00
2019-06-08T07:48:34.559Z,99131.00
2019-06-08T07:51:03.657Z,99120.00
2019-06-08T07:53:32.733Z,99121.00
2019-06-08T07:56:01.966Z,99132.00
2019-06-08T07:58:31.224Z,99131.00
2019-06-08T08:01:07.751Z,99145.00
2019-06-08T08:03:31.558Z,99139.00
2019-06-08T08:06:00.886Z,99143.00
2019-06-08T08:08:30.310Z,99151.00
2019-06-08T08:11:00.463Z,99160.00
2019-06-08T08:13:29.627Z,99141.00
2019-06-08T08:15:59.368Z,99169.00
2019-06-08T08:18:29.843Z,99169.00
2019-06-08T08:21:07.493Z,99167.00
2019-06-08T08:23:29.788Z,99176.00
2019-06-08T08:26:01.694Z,99172.00
2019-06-08T08:28:30.133Z,99176.00
2019-06-08T08:31:01.711Z,99172.00
2019-06-08T08:33:30.406Z,99191.00
2019-06-08T08:36:01.735Z,99194.00
2019-06-08T08:38:30.571Z,99186.00
2019-06-08T08:41:06.820Z,99182.00
2019-06-08T08:43:30.801Z,99187.00
2019-06-08T08:46:01.820Z,99193.00
2019-06-08T08:48:31.765Z,99189.00
2019-06-08T08:51:03.494Z,99187.00
2019-06-08T08:53:32.733Z,99192.00
2019-06-08T08:56:04.331Z,99195.00
2019-06-08T08:58:33.668Z,99189.00
2019-06-08T09:01:04.315Z,99192.00
2019-06-08T09:03:34.588Z,99193.00
2019-06-08T09:06:04.145Z,99193.00
2019-06-08T09:08:33.594Z,99190.00
2019-06-08T09:11:03.790Z,99199.00
2019-06-08T09:13:33.140Z,99202.00
2019-06-08T09:16:04.174Z,99207.00
2019-06-08T09:18:33.361Z,99213.00
2019-06-08T09:21:03.988Z,99212.00
2019-06-08T09:23:33.559Z,99214.00
2019-06-08T09:26:09.241Z,99215.00
2019-06-08T09:28:33.838Z,99218.00
2019-06-08T09:31:04.113Z,99214.00
2019-06-08T09:33:33.729Z,99232.00
2019-06-08T09:36:04.903Z,99229.00
2019-06-08T09:38:34.125Z,99224.00
2019-06-08T09:41:05.565Z,99229.00
2019-06-08T09:43:34.893Z,99225.00
2019-06-08T09:46:05.363Z,99230.00
2019-06-08T09:48:34.721Z,99226.00
2019-06-08T09:51:05.641Z,99226.00
2019-06-08T09:53:38.853Z,99231.00
2019-06-08T09:56:09.040Z,99241.00
2019-06-08T09:58:36.209Z,99249.00
2019-06-08T10:01:08.548Z,99247.00
2019-06-08T10:03:38.955Z,99257.00
2019-06-08T10:06:11.590Z,99253.00
2019-06-08T10:08:38.753Z,99259.00
2019-06-08T10:11:09.724Z,99255.00
2019-06-08T10:13:43.113Z,99243.00
2019-06-08T10:16:11.093Z,99257.00
2019-06-08T10:18:40.538Z,99254.00
2019-06-08T10:21:09.883Z,99256.00
2019-06-08T10:23:41.782Z,99251.00
2019-06-08T10:26:10.174Z,99252.00
2019-06-08T10:28:40.930Z,99255.00
2019-06-08T10:31:10.170Z,99238.00
2019-06-08T10:33:40.646Z,99245.00
2019-06-08T10:36:12.851Z,99251.00
2019-06-08T10:38:41.224Z,99246.00
2019-06-08T10:41:17.476Z,99238.00
2019-06-08T10:43:41.542Z,99236.00
2019-06-08T10:46:16.582Z,99258.00
2019-06-08T10:48:41.592Z,99258.00
2019-06-08T10:51:12.972Z,99248.00
2019-06-08T10:53:48.451Z,99237.00
2019-06-08T10:56:12.822Z,99251.00
2019-06-08T10:58:42.188Z,99234.00
2019-06-08T11:01:13.156Z,99238.00
2019-06-08T11:03:42.108Z,99242.00
2019-06-08T11:06:13.309Z,99239.00
2019-06-08T11:08:42.617Z,99230.00
2019-06-08T11:11:12.086Z,99241.00
2019-06-08T11:13:41.545Z,99245.00
2019-06-08T11:16:13.542Z,99235.00
2019-06-08T11:18:41.495Z,99242.00
2019-06-08T11:21:12.690Z,99241.00
2019-06-08T11:23:41.763Z,99238.00
2019-06-08T11:26:19.162Z,99233.00
2019-06-08T11:28:41.693Z,99229.00
2019-06-08T11:31:15.743Z,99233.00
2019-06-08T11:33:41.952Z,99244.00
2019-06-08T11:36:14.350Z,99227.00
2019-06-08T11:38:42.111Z,99221.00
2019-06-08T11:41:13.484Z,99239.00
2019-06-08T11:43:42.451Z,99235.00
2019-06-08T11:46:11.527Z,99232.00
2019-06-08T11:48:41.545Z,99230.00
2019-06-08T11:51:13.041Z,99240.00
2019-06-08T11:53:41.743Z,99236.00
2019-06-08T11:56:13.296Z,99228.00
2019-06-08T11:58:42.901Z,99226.00
2019-06-08T12:01:14.713Z,99237.00
2019-06-08T12:03:48.222Z,99229.00
2019-06-08T12:06:18.547Z,99239.00
2019-06-08T12:08:47.959Z,99231.00
2019-06-08T12:11:20.715Z,99236.00
2019-06-08T12:13:50.803Z,99244.00
2019-06-08T12:16:22.299Z,99233.00
2019-06-08T12:18:50.843Z,99232.00
2019-06-08T12:21:20.076Z,99228.00
2019-06-08T12:23:49.377Z,99223.00
2019-06-08T12:26:18.592Z,99233.00
2019-06-08T12:28:48.685Z,99227.00
2019-06-08T12:31:22.427Z,99244.00
2019-06-08T12:33:49.037Z,99221.00
2019-06-08T12:36:20.536Z,99239.00
2019-06-08T12:38:49.370Z,99250.00
2019-06-08T12:41:19.368Z,99248.00
2019-06-08T12:43:48.712Z,99251.00
2019-06-08T12:46:19.814Z,99248.00
2019-06-08T12:48:48.684Z,99252.00
2019-06-08T12:51:20.979Z,99261.00
2019-06-08T12:53:48.876Z,99250.00
2019-06-08T12:56:22.157Z,99265.00
2019-06-08T12:58:48.817Z,99265.00
2019-06-08T13:01:18.953Z,99257.00
2019-06-08T13:03:48.543Z,99262.00
2019-06-08T13:06:18.292Z,99263.00
2019-06-08T13:08:47.896Z,99261.00
2019-06-08T13:11:18.997Z,99264.00
2019-06-08T13:13:48.873Z,99270.00
2019-06-08T13:16:23.719Z,99260.00
2019-06-08T13:18:49.090Z,99264.00
2019-06-08T13:21:33.272Z,99263.00
2019-06-08T13:23:49.086Z,99272.00
2019-06-08T13:26:24.880Z,99261.00
2019-06-08T13:28:49.275Z,99263.00
2019-06-08T13:31:22.063Z,99263.00
2019-06-08T13:33:49.324Z,99264.00
2019-06-08T13:36:22.133Z,99262.00
2019-06-08T13:38:49.299Z,99270.00
2019-06-08T13:41:23.671Z,99263.00
2019-06-08T13:43:49.547Z,99268.00
2019-06-08T13:46:20.698Z,99274.00
2019-06-08T13:48:49.526Z,99265.00
2019-06-08T13:51:21.044Z,99262.00
2019-06-08T13:53:50.058Z,99249.00
2019-06-08T13:56:20.764Z,99258.00
2019-06-08T13:58:50.888Z,99253.00
2019-06-08T14:01:21.694Z,99255.00
2019-06-08T14:04:46.762Z,99259.00
2019-06-08T14:07:47.979Z,99257.00
2019-06-08T14:10:42.643Z,99252.00
2019-06-08T14:13:12.051Z,99263.00
2019-06-08T14:15:41.080Z,99258.00
2019-06-08T14:18:29.936Z,99253.00
2019-06-08T14:20:59.015Z,99263.00
2019-06-08T14:23:59.761Z,99251.00
2019-06-08T14:26:29.650Z,99261.00
2019-06-08T14:29:01.570Z,99245.00
2019-06-08T14:31:32.140Z,99226.00
2019-06-08T14:34:01.510Z,99239.00
2019-06-08T14:36:31.029Z,99239.00
2019-06-08T14:39:02.411Z,99244.00
2019-06-08T14:41:31.628Z,99244.00
2019-06-08T14:44:00.845Z,99258.00
2019-06-08T14:46:30.439Z,99246.00
2019-06-08T14:48:59.734Z,99252.00
2019-06-08T14:51:52.133Z,99255.00
2019-06-08T14:54:54.101Z,99250.00
2019-06-08T14:57:23.425Z,99254.00
2019-06-08T14:59:56.053Z,99253.00
2019-06-08T15:02:23.761Z,99250.00
2019-06-08T15:04:55.010Z,99245.00
2019-06-08T15:07:26.346Z,99254.00
2019-06-08T15:09:58.026Z,99252.00
2019-06-08T15:12:28.601Z,99249.00
2019-06-08T15:14:58.070Z,99255.00
2019-06-08T15:17:28.970Z,99251.00
2019-06-08T15:19:58.555Z,99257.00
2019-06-08T15:22:29.060Z,99246.00
2019-06-08T15:24:58.812Z,99245.00
2019-06-08T15:27:32.823Z,99238.00
2019-06-08T15:29:59.108Z,99233.00
2019-06-08T15:32:47.911Z,99236.00
2019-06-08T15:35:18.075Z,99240.00
2019-06-08T15:37:47.865Z,99238.00
2019-06-08T15:40:17.813Z,99231.00
2019-06-08T15:42:51.634Z,99236.00
2019-06-08T15:45:22.346Z,99224.00
2019-06-08T15:47:51.368Z,99240.00
2019-06-08T15:50:20.453Z,99229.00
2019-06-08T15:52:49.535Z,99228.00
2019-06-08T15:55:19.463Z,99220.00
2019-06-08T15:57:51.503Z,99221.00
2019-06-08T16:00:21.054Z,99227.00
2019-06-08T16:02:50.123Z,99226.00
2019-06-08T16:05:20.572Z,99226.00
2019-06-08T16:07:50.319Z,99225.00
2019-06-08T16:10:19.527Z,99223.00
2019-06-08T16:12:48.781Z,99233.00
2019-06-08T16:15:17.961Z,99226.00
2019-06-08T16:17:47.118Z,99209.00
2019-06-08T16:20:16.374Z,99216.00
2019-06-08T16:22:45.728Z,99211.00
2019-06-08T16:25:15.273Z,99214.00
2019-06-08T16:27:44.678Z,99215.00
2019-06-08T16:30:13.946Z,99214.00
2019-06-08T16:32:43.152Z,99206.00
2019-06-08T16:35:12.507Z,99216.00
2019-06-08T16:37:41.604Z,99215.00
2019-06-08T16:40:11.088Z,99217.00
2019-06-08T16:42:40.399Z,99213.00
2019-06-08T16:45:09.995Z,99214.00
2019-06-08T16:47:40.357Z,99229.00
2019-06-08T16:50:23.368Z,99219.00
2019-06-08T16:52:40.914Z,99218.00
2019-06-08T16:55:10.291Z,99224.00
2019-06-08T16:57:41.145Z,99220.00
2019-06-08T17:00:42.093Z,99226.00
2019-06-08T17:02:41.558Z,99225.00
2019-06-08T17:05:10.793Z,99226.00
2019-06-08T17:07:39.761Z,99218.00
2019-06-08T17:10:09.066Z,99216.00
2019-06-08T17:12:39.147Z,99226.00
2019-06-08T17:15:08.438Z,99227.00
2019-06-08T17:17:38.590Z,99225.00
2019-06-08T17:20:07.883Z,99230.00
2019-06-08T17:22:38.625Z,99226.00
2019-06-08T17:25:08.487Z,99227.00
2019-06-08T17:27:38.816Z,99228.00
2019-06-08T17:30:08.896Z,99228.00
2019-06-08T17:32:38.577Z,99226.00
2019-06-08T17:35:08.497Z,99236.00
2019-06-08T17:37:38.147Z,99230.00
2019-06-08T17:40:07.593Z,99227.00
2019-06-08T17:42:37.605Z,99230.00
2019-06-08T17:45:07.083Z,99228.00
2019-06-08T17:47:36.418Z,99227.00
2019-06-08T17:50:07.196Z,99233.00
2019-06-08T17:52:37.151Z,99227.00
2019-06-08T17:55:06.353Z,99233.00
2019-06-08T17:57:47.289Z,99230.00
2019-06-08T18:00:07.655Z,99224.00
2019-06-08T18:02:39.931Z,99231.00
2019-06-08T18:05:08.331Z,99231.00
2019-06-08T18:07:39.043Z,99229.00
2019-06-08T18:10:08.292Z,99231.00
2019-06-08T18:12:41.057Z,99230.00
2019-06-08T18:15:09.455Z,99231.00
2019-06-08T18:17:40.802Z,99231.00
2019-06-08T18:20:11.158Z,99240.00
2019-06-08T18:22:42.853Z,99237.00
2019-06-08T18:25:11.317Z,99238.00
2019-06-08T18:27:42.396Z,99239.00
2019-06-08T18:30:11.915Z,99249.00
2019-06-08T18:32:42.488Z,99242.00
2019-06-08T18:35:12.582Z,99238.00
2019-06-08T18:37:42.880Z,99237.00
2019-06-08T18:40:13.205Z,99240.00
2019-06-08T18:42:43.157Z,99240.00
2019-06-08T18:45:13.212Z,99239.00
2019-06-08T18:47:43.748Z,99236.00
2019-06-08T18:50:13.342Z,99245.00
2019-06-08T18:52:44.935Z,99241.00
2019-06-08T18:55:13.798Z,99244.00
2019-06-08T18:57:44.130Z,99254.00
2019-06-08T19:00:14.479Z,99236.00
2019-06-08T19:02:46.288Z,99252.00
2019-06-08T19:05:17.707Z,99261.00
2019-06-08T19:07:49.991Z,99258.00
2019-06-08T19:10:29.865Z,99255.00
2019-06-08T19:12:59.431Z,99260.00
2019-06-08T19:15:33.163Z,99264.00
2019-06-08T19:18:02.403Z,99258.00
2019-06-08T19:20:32.099Z,99264.00
2019-06-08T19:23:01.590Z,99264.00
2019-06-08T19:25:30.791Z,99271.00
2019-06-08T19:27:59.963Z,99276.00
2019-06-08T19:30:29.200Z,99281.00
2019-06-08T19:32:58.652Z,99279.00
2019-06-08T19:35:28.033Z,99279.00
2019-06-08T19:37:58.385Z,99289.00
2019-06-08T19:40:27.577Z,99292.00
2019-06-08T19:43:00.035Z,99305.00
2019-06-08T19:45:27.815Z,99304.00
2019-06-08T19:47:57.774Z,99312.00
2019-06-08T19:50:28.736Z,99318.00
2019-06-08T19:52:58.237Z,99312.00
2019-06-08T19:55:27.424Z,99315.00
2019-06-08T19:57:57.612Z,99313.00
2019-06-08T20:00:27.928Z,99319.00
2019-06-08T20:02:58.323Z,99316.00
2019-06-08T20:05:28.599Z,99318.00
2019-06-08T20:07:57.875Z,99316.00
2019-06-08T20:10:27.937Z,99314.00
2019-06-08T20:12:57.778Z,99310.00
2019-06-08T20:15:27.098Z,99315.00
2019-06-08T20:17:57.539Z,99328.00
2019-06-08T20:20:27.958Z,99331.00
2019-06-08T20:22:58.561Z,99324.00
2019-06-08T20:25:27.973Z,99331.00
2019-06-08T20:27:58.723Z,99332.00
2019-06-08T20:30:28.729Z,99330.00
2019-06-08T20:32:57.826Z,99339.00
2019-06-08T20:35:28.042Z,99341.00
2019-06-08T20:37:57.860Z,99341.00
2019-06-08T20:40:27.977Z,99353.00
2019-06-08T20:42:57.901Z,99349.00
2019-06-08T20:45:28.108Z,99344.00
2019-06-08T20:47:58.562Z,99343.00
2019-06-08T20:50:27.828Z,99353.00
2019-06-08T20:52:57.800Z,99354.00
2019-06-08T20:55:28.322Z,99343.00
2019-06-08T20:57:57.752Z,99339.00
2019-06-08T21:00:27.161Z,99346.00
2019-06-08T21:03:02.578Z,99347.00
2019-06-08T21:05:27.853Z,99346.00
2019-06-08T21:07:58.910Z,99348.00
2019-06-08T21:10:30.643Z,99343.00
2019-06-08T21:12:59.706Z,99347.00
2019-06-08T21:15:28.833Z,99341.00
2019-06-08T21:17:57.952Z,99352.00
2019-06-08T21:20:28.269Z,99354.00
2019-06-08T21:22:59.715Z,99350.00
2019-06-08T21:25:28.335Z,99351.00
2019-06-08T21:27:58.536Z,99346.00
2019-06-08T21:30:28.457Z,99345.00
2019-06-08T21:33:00.606Z,99350.00
2019-06-08T21:35:28.852Z,99346.00
2019-06-08T21:38:01.021Z,99347.00
2019-06-08T21:40:28.920Z,99352.00
2019-06-08T21:43:01.153Z,99358.00
2019-06-08T21:45:28.887Z,99368.00
2019-06-08T21:48:00.216Z,99363.00
2019-06-08T21:50:29.155Z,99363.00
2019-06-08T21:53:00.314Z,99367.00
2019-06-08T21:55:29.103Z,99364.00
2019-06-08T21:58:01.472Z,99360.00
2019-06-08T22:00:39.035Z,99363.00
2019-06-08T22:03:00.257Z,99380.00
2019-06-08T22:05:29.396Z,99372.00
2019-06-08T22:08:00.009Z,99375.00
2019-06-08T22:10:29.608Z,99379.00
2019-06-08T22:13:00.729Z,99393.00
2019-06-08T22:15:29.432Z,99387.00
2019-06-08T22:18:00.148Z,99392.00
2019-06-08T22:20:29.559Z,99390.00
2019-06-08T22:22:59.796Z,99402.00
2019-06-08T22:25:29.304Z,99402.00
2019-06-08T22:28:00.925Z,99403.00
2019-06-08T22:30:39.301Z,99400.00
2019-06-08T22:32:59.908Z,99397.00
2019-06-08T22:35:28.984Z,99402.00
2019-06-08T22:38:00.694Z,99399.00
2019-06-08T22:40:29.241Z,99397.00
2019-06-08T22:43:00.741Z,99409.00
2019-06-08T22:45:29.205Z,99399.00
2019-06-08T22:48:00.436Z,99395.00
2019-06-08T22:50:29.208Z,99403.00
2019-06-08T22:53:00.659Z,99394.00
2019-06-08T22:55:29.091Z,99399.00
2019-06-08T22:58:01.230Z,99397.00
2019-06-08T23:00:29.511Z,99403.00
2019-06-08T23:03:01.979Z,99407.00
2019-06-08T23:05:29.399Z,99410.00
2019-06-08T23:07:59.870Z,99411.00
2019-06-08T23:10:29.252Z,99403.00
2019-06-08T23:13:00.725Z,99388.00
2019-06-08T23:15:29.144Z,99417.00
2019-06-08T23:18:00.926Z,99403.00
2019-06-08T23:20:29.169Z,99415.00
2019-06-08T23:22:59.794Z,99408.00
2019-06-08T23:25:29.018Z,99412.00
2019-06-08T23:27:58.217Z,99410.00
2019-06-08T23:30:27.711Z,99409.00
2019-06-08T23:33:00.671Z,99415.00
2019-06-08T23:35:27.658Z,99406.00
2019-06-08T23:37:56.927Z,99406.00
2019-06-08T23:40:27.273Z,99407.00
2019-06-08T23:42:58.511Z,99415.00
2019-06-08T23:45:27.340Z,99426.00
2019-06-08T23:47:58.344Z,99428.00
2019-06-08T23:50:27.348Z,99425.00
2019-06-08T23:52:56.512Z,99419.00
2019-06-08T23:55:27.752Z,99415.00
2019-06-08T23:57:56.451Z,99411.00
